createdAt,value
2022-10-06T00:01:46.541Z,24.10
2022-10-06T00:06:48.581Z,25.00
2022-10-06T00:11:50.969Z,24.50
2022-10-06T00:16:53.225Z,24.80
2022-10-06T00:21:55.300Z,24.70
2022-10-06T00:26:57.343Z,24.80
2022-10-06T00:31:59.376Z,25.70
2022-10-06T00:37:02.311Z,25.90
2022-10-06T00:42:05.052Z,25.50
2022-10-06T00:47:08.311Z,25.40
2022-10-06T00:52:25.571Z,26.20
2022-10-06T00:57:28.268Z,25.80
2022-10-06T01:07:53.383Z,26.80
2022-10-06T01:12:57.088Z,27.10
2022-10-06T01:18:05.821Z,27.50
2022-10-06T01:23:10.274Z,27.80
2022-10-06T01:28:14.213Z,27.20
2022-10-06T01:33:16.906Z,27.60
2022-10-06T01:38:20.195Z,27.70
2022-10-06T01:43:22.952Z,28.50
2022-10-06T01:48:26.614Z,28.10
2022-10-06T01:53:30.700Z,27.80
2022-10-06T01:58:33.496Z,27.90
2022-10-06T02:03:37.830Z,27.90
2022-10-06T02:08:39.947Z,28.10
2022-10-06T02:13:42.191Z,28.00
2022-10-06T02:18:45.051Z,28.40
2022-10-06T02:23:47.946Z,28.50
2022-10-06T02:28:50.630Z,28.80
2022-10-06T02:33:53.601Z,30.00
2022-10-06T02:38:57.403Z,30.50
2022-10-06T02:43:59.935Z,30.50
2022-10-06T02:49:02.138Z,31.00
2022-10-06T02:54:04.287Z,32.20
2022-10-06T02:59:06.353Z,31.90
2022-10-06T03:04:08.733Z,31.90
2022-10-06T03:09:11.053Z,32.80
2022-10-06T03:14:17.775Z,30.70
2022-10-06T03:24:26.117Z,29.90
2022-10-06T03:29:30.874Z,29.60
2022-10-06T03:34:33.908Z,29.40
2022-10-06T03:39:36.597Z,27.80
2022-10-06T03:44:39.025Z,26.30
2022-10-06T03:49:42.328Z,26.10
2022-10-06T03:59:47.674Z,26.30
2022-10-06T04:04:50.140Z,26.20
2022-10-06T04:09:52.623Z,26.00
2022-10-06T04:14:59.875Z,26.30
2022-10-06T04:20:02.804Z,26.00
2022-10-06T04:25:05.442Z,25.50
2022-10-06T04:30:07.896Z,25.70
2022-10-06T04:35:11.215Z,25.20
2022-10-06T04:40:13.508Z,25.40
2022-10-06T04:45:15.690Z,25.30
2022-10-06T04:50:18.266Z,25.40
2022-10-06T04:55:34.920Z,25.40
2022-10-06T05:00:37.646Z,24.60
2022-10-06T05:05:40.376Z,25.10
2022-10-06T05:15:59.220Z,25.10
2022-10-06T05:21:06.777Z,25.00
2022-10-06T05:26:15.200Z,24.80
2022-10-06T05:31:27.045Z,25.00
2022-10-06T05:36:31.319Z,24.80
2022-10-06T05:41:34.929Z,25.10
2022-10-06T05:46:37.704Z,25.00
2022-10-06T05:51:41.600Z,25.30
2022-10-06T05:56:44.491Z,25.10
2022-10-06T06:06:50.385Z,25.40
2022-10-06T06:11:53.015Z,25.40
2022-10-06T06:16:55.697Z,25.40
2022-10-06T06:21:57.924Z,25.60
2022-10-06T06:27:00.108Z,25.80
2022-10-06T06:32:02.353Z,25.70
2022-10-06T06:42:12.213Z,26.20
2022-10-06T06:47:18.002Z,27.30
2022-10-06T06:52:21.330Z,26.90
2022-10-06T06:57:23.587Z,28.00
2022-10-06T07:02:29.590Z,27.20
2022-10-06T07:07:32.243Z,27.30
2022-10-06T07:12:34.875Z,27.40
2022-10-06T07:17:55.732Z,27.20
2022-10-06T07:23:17.404Z,27.30
2022-10-06T07:28:19.684Z,27.30
2022-10-06T07:33:22.209Z,27.80
2022-10-06T07:38:25.915Z,27.40
2022-10-06T07:43:28.546Z,27.20
2022-10-06T07:48:31.191Z,27.30
2022-10-06T07:53:35.991Z,27.40
2022-10-06T07:58:39.532Z,27.50
2022-10-06T08:03:42.368Z,27.20
2022-10-06T08:08:51.718Z,26.90
2022-10-06T08:13:54.918Z,25.60
2022-10-06T08:18:59.148Z,26.00
2022-10-06T08:24:02.008Z,25.40
2022-10-06T08:29:04.396Z,25.10
2022-10-06T08:34:12.046Z,24.50
2022-10-06T08:39:14.524Z,23.20
2022-10-06T08:44:30.331Z,23.20
2022-10-06T08:49:46.388Z,22.80
2022-10-06T08:54:58.891Z,21.10
2022-10-06T09:00:03.309Z,21.50
2022-10-06T09:05:06.808Z,21.20
2022-10-06T09:10:41.121Z,21.20
2022-10-06T09:15:50.747Z,20.60
2022-10-06T09:20:58.651Z,19.00
2022-10-06T09:26:01.861Z,18.90
2022-10-06T09:31:13.535Z,18.00
2022-10-06T09:36:15.726Z,17.90
2022-10-06T09:41:18.172Z,17.50
2022-10-06T09:46:33.585Z,17.00
2022-10-06T09:51:36.176Z,16.50
2022-10-06T09:56:45.989Z,15.80
2022-10-06T10:01:53.803Z,14.80
2022-10-06T10:07:24.175Z,14.80
2022-10-06T10:12:30.028Z,14.90
2022-10-06T10:17:59.055Z,13.00
2022-10-06T10:23:09.114Z,13.60
2022-10-06T10:28:14.042Z,12.50
2022-10-06T10:33:35.306Z,13.20
2022-10-06T10:38:41.017Z,13.10
2022-10-06T10:44:14.826Z,12.90
2022-10-06T10:49:20.393Z,12.90
2022-10-06T10:54:53.251Z,11.30
2022-10-06T11:00:01.820Z,11.60
2022-10-06T11:05:25.410Z,11.80
2022-10-06T11:10:54.969Z,11.40
2022-10-06T11:16:21.388Z,10.70
2022-10-06T11:21:34.581Z,11.00
2022-10-06T11:27:01.126Z,11.20
2022-10-06T11:32:30.621Z,10.30
2022-10-06T11:37:32.708Z,11.00
2022-10-06T11:42:43.946Z,10.90
2022-10-06T11:48:02.389Z,10.80
2022-10-06T11:53:06.157Z,11.10
2022-10-06T12:03:46.539Z,10.40
2022-10-06T12:08:48.636Z,9.80
2022-10-06T12:15:43.910Z,9.40
2022-10-06T12:19:25.830Z,9.20
2022-10-06T12:24:30.936Z,9.30
2022-10-06T12:29:43.337Z,8.30
2022-10-06T12:35:03.335Z,8.30
2022-10-06T12:40:41.843Z,8.00
2022-10-06T12:45:46.753Z,7.10
2022-10-06T12:50:54.673Z,6.10
2022-10-06T13:01:03.695Z,5.70
2022-10-06T13:06:08.301Z,5.90
2022-10-06T13:16:32.276Z,5.30
2022-10-06T13:21:34.741Z,4.80
2022-10-06T13:26:37.045Z,4.40
2022-10-06T13:31:51.799Z,3.80
2022-10-06T13:36:56.623Z,3.20
2022-10-06T13:42:03.922Z,2.50
2022-10-06T13:47:07.902Z,2.20
2022-10-06T13:52:33.492Z,1.00
2022-10-06T13:57:42.628Z,1.00
2022-10-06T14:02:51.647Z,1.00
2022-10-06T14:08:10.789Z,1.00
2022-10-06T14:13:24.232Z,1.00
2022-10-06T14:18:33.412Z,1.00
2022-10-06T14:23:52.821Z,1.00
2022-10-06T14:28:55.277Z,1.00
2022-10-06T14:33:57.420Z,1.00
2022-10-06T14:39:00.324Z,1.00
2022-10-06T14:44:12.409Z,1.00
2022-10-06T14:49:15.357Z,1.00
2022-10-06T14:54:18.100Z,1.00
2022-10-06T14:59:21.592Z,1.00
2022-10-06T15:04:27.983Z,1.00
2022-10-06T15:09:31.275Z,1.00
2022-10-06T15:14:39.503Z,1.00
2022-10-06T15:19:42.056Z,1.00
2022-10-06T15:24:48.623Z,1.00
2022-10-06T15:29:50.664Z,1.00
2022-10-06T15:34:52.712Z,1.00
2022-10-06T15:39:54.937Z,1.00
2022-10-06T15:44:57.122Z,1.10
2022-10-06T15:49:59.302Z,1.40
2022-10-06T15:55:01.517Z,3.70
2022-10-06T16:00:04.783Z,3.60
2022-10-06T16:05:32.589Z,4.80
2022-10-06T16:10:34.636Z,5.60
2022-10-06T16:15:36.695Z,6.10
2022-10-06T16:20:38.749Z,7.00
2022-10-06T16:25:40.807Z,7.50
2022-10-06T16:30:42.918Z,9.50
2022-10-06T16:35:56.816Z,9.80
2022-10-06T16:41:04.141Z,9.00
2022-10-06T16:46:11.809Z,9.50
2022-10-06T16:51:21.099Z,10.10
2022-10-06T16:56:27.281Z,10.80
2022-10-06T17:01:32.343Z,11.30
2022-10-06T17:06:43.702Z,12.50
2022-10-06T17:11:49.333Z,12.50
2022-10-06T17:16:53.742Z,13.80
2022-10-06T17:21:59.031Z,14.00
2022-10-06T17:27:04.134Z,14.30
2022-10-06T17:32:06.251Z,13.80
2022-10-06T17:37:08.329Z,14.40
2022-10-06T17:42:13.070Z,14.30
2022-10-06T17:47:15.087Z,15.80
2022-10-06T17:52:20.677Z,14.90
2022-10-06T17:57:25.329Z,15.50
2022-10-06T18:02:28.293Z,15.80
2022-10-06T18:07:30.412Z,17.00
2022-10-06T18:12:36.030Z,17.10
2022-10-06T18:22:40.789Z,17.40
2022-10-06T18:27:43.722Z,18.10
2022-10-06T18:38:08.159Z,18.30
2022-10-06T18:43:10.792Z,18.70
2022-10-06T18:48:31.568Z,18.80
2022-10-06T18:53:38.328Z,19.30
2022-10-06T18:58:41.029Z,19.20
2022-10-06T19:03:43.215Z,19.70
2022-10-06T19:08:45.697Z,20.10
2022-10-06T19:13:49.127Z,20.20
2022-10-06T19:18:51.223Z,20.40
2022-10-06T19:23:53.280Z,20.20
2022-10-06T19:28:58.147Z,20.30
2022-10-06T19:34:04.035Z,20.50
2022-10-06T19:39:10.309Z,21.20
2022-10-06T19:44:12.380Z,20.80
2022-10-06T19:49:14.550Z,20.50
2022-10-06T19:54:18.979Z,21.40
2022-10-06T19:59:21.923Z,20.80
2022-10-06T20:04:24.248Z,20.90
2022-10-06T20:19:31.759Z,21.60
2022-10-06T20:24:33.842Z,21.70
2022-10-06T20:29:35.974Z,21.80
2022-10-06T20:34:38.051Z,22.00
2022-10-06T20:39:58.858Z,22.50
2022-10-06T20:50:03.690Z,22.40
2022-10-06T20:55:08.627Z,22.80
2022-10-06T21:00:11.214Z,22.70
2022-10-06T21:05:13.358Z,22.70
2022-10-06T21:10:15.484Z,22.70
2022-10-06T21:15:17.581Z,22.70
2022-10-06T21:20:19.650Z,22.80
2022-10-06T21:25:21.729Z,22.90
2022-10-06T21:30:24.342Z,22.90
2022-10-06T21:40:29.046Z,23.10
2022-10-06T21:45:33.130Z,22.80
2022-10-06T22:00:40.490Z,23.00
2022-10-06T22:05:42.540Z,23.10
2022-10-06T22:10:45.146Z,23.10
2022-10-06T22:15:47.225Z,23.30
2022-10-06T22:25:58.094Z,23.40
2022-10-06T22:31:08.737Z,23.60
2022-10-06T22:36:13.726Z,23.70
2022-10-06T22:41:16.479Z,23.80
2022-10-06T22:46:18.596Z,23.70
2022-10-06T22:51:21.484Z,23.90
2022-10-06T22:56:23.455Z,24.40
2022-10-06T23:01:26.156Z,23.80
2022-10-06T23:06:31.636Z,23.90
2022-10-06T23:11:33.731Z,23.60
2022-10-06T23:16:35.838Z,23.90
2022-10-06T23:21:40.100Z,24.00
2022-10-06T23:31:44.736Z,23.90
2022-10-06T23:36:46.981Z,24.20
2022-10-06T23:41:49.017Z,24.20
2022-10-06T23:46:51.118Z,24.30
2022-10-06T23:51:53.193Z,24.50
2022-10-06T23:56:55.630Z,24.70
